Estación Meteorológica Peña el Pijo (Robertgarden) [ 12/11/19 23:43:01 CET ]

Fecha Hora Presion(HPa) Temp (°C) Humedad % Rocio (°C) Viento ( m/s) Direccion Lluvia 1Hora(mm) Lluvia 24H(mm) LLuvia Total(mm)
2019-Nov-25 01:02:00 1005.100 7.4 76 3.4         37.81
2019-Nov-25 02:02:19 1005.900 6.9 78 3.3         37.81
2019-Nov-25 03:10:16 1005.800 7.3 79 3.9 1.5 NE     37.81
2019-Nov-25 04:07:38 1005.500 7.0 81 4.0         37.81
2019-Nov-25 05:02:00 1005.300 7.4 81 4.4         37.81
2019-Nov-25 06:01:49 1004.800 7.5 81 4.5         37.81
2019-Nov-25 07:01:51 1005.100 9.3 83 6.5         37.81
2019-Nov-25 08:01:54 1004.900 9.8 81 6.7         37.81
2019-Nov-25 09:01:37 1004.900 10.2 81 7.1         37.81
2019-Nov-25 10:01:38 1005.400 11.0 82 7.9         37.81
2019-Nov-25 11:01:48 1005.800 12.1 79 8.6 2.1 NNW     37.81
2019-Nov-25 12:01:43 1005.800 12.8 77 8.8         37.81
2019-Nov-25 13:01:42 1005.500 12.6 79 9.0         37.81
2019-Nov-25 14:01:51 1005.100 12.3 79 8.8 2.7 NW     37.81
2019-Nov-25 15:01:32 1004.900 12.8 78 9.0 2.1 NNW     37.81
2019-Nov-25 16:01:54 1004.600 13.6 75 9.2         37.81
2019-Nov-25 17:01:56 1004.800 12.8 75 8.5         37.81
2019-Nov-25 18:01:50 1005.300 12.1 74 7.6         37.81
2019-Nov-25 19:01:29 1005.500 11.7 79 8.2         37.81
2019-Nov-25 20:01:45 1005.900 11.6 77 7.7         37.81
2019-Nov-25 21:01:47 1006.000 11.3 76 7.2         37.81
2019-Nov-25 22:01:47 1006.400 11.3 75 7.0 3.2 NW     37.81
2019-Nov-25 23:01:34 1006.700 11.3 75 7.0 0.4 WNW     37.81

Temperatura Máxima:13°    Temperatura Mínima:
Presión Máxima:1006.700 Hpa    Presión Mínima:1004.600 Hpa


Volver